createdAt,value
2022-10-14T00:01:59.173Z,72.90
2022-10-14T00:04:26.087Z,73.00
2022-10-14T00:06:52.993Z,72.90
2022-10-14T00:09:19.882Z,73.10
2022-10-14T00:11:46.902Z,73.10
2022-10-14T00:14:14.780Z,73.30
2022-10-14T00:16:42.095Z,73.40
2022-10-14T00:19:09.250Z,73.70
2022-10-14T00:21:36.923Z,73.60
2022-10-14T00:24:04.195Z,73.60
2022-10-14T00:26:32.220Z,73.70
2022-10-14T00:28:59.413Z,73.80
2022-10-14T00:31:26.654Z,73.90
2022-10-14T00:33:53.609Z,73.90
2022-10-14T00:36:21.208Z,73.70
2022-10-14T00:38:48.848Z,73.70
2022-10-14T00:41:17.727Z,73.90
2022-10-14T00:43:54.895Z,73.80
2022-10-14T00:46:24.797Z,73.60
2022-10-14T00:48:51.952Z,73.80
2022-10-14T00:51:19.098Z,73.70
2022-10-14T00:53:48.810Z,73.50
2022-10-14T00:56:16.508Z,73.20
2022-10-14T00:58:43.718Z,73.20
2022-10-14T01:01:10.737Z,73.20
2022-10-14T01:03:37.613Z,73.00
2022-10-14T01:06:34.088Z,72.80
2022-10-14T01:09:04.067Z,72.70
2022-10-14T01:11:34.174Z,72.60
2022-10-14T01:14:04.103Z,72.70
2022-10-14T01:16:34.629Z,72.70
2022-10-14T01:19:23.114Z,72.80
2022-10-14T01:21:53.842Z,72.90
2022-10-14T01:24:30.109Z,72.80
2022-10-14T01:27:14.147Z,72.90
2022-10-14T01:29:48.042Z,73.00
2022-10-14T01:32:22.441Z,73.20
2022-10-14T01:34:52.583Z,73.10
2022-10-14T01:37:22.209Z,72.90
2022-10-14T01:39:50.269Z,73.00
2022-10-14T01:42:18.600Z,73.00
2022-10-14T01:44:47.167Z,72.90
2022-10-14T01:47:14.042Z,72.90
2022-10-14T01:49:48.814Z,72.80
2022-10-14T01:52:17.223Z,72.50
2022-10-14T01:54:44.084Z,72.70
2022-10-14T01:57:16.291Z,72.70
2022-10-14T01:59:43.241Z,72.60
2022-10-14T02:02:11.494Z,72.50
2022-10-14T02:04:38.541Z,72.60
2022-10-14T02:07:10.407Z,72.90
2022-10-14T02:09:40.606Z,72.90
2022-10-14T02:12:23.252Z,72.90
2022-10-14T02:14:52.303Z,72.90
2022-10-14T02:17:19.143Z,72.80
2022-10-14T02:20:04.713Z,72.90
2022-10-14T02:22:35.961Z,73.00
2022-10-14T02:25:21.648Z,73.10
2022-10-14T02:27:49.067Z,73.20
2022-10-14T02:30:16.213Z,73.20
2022-10-14T02:32:43.121Z,73.20
2022-10-14T02:35:10.197Z,73.20
2022-10-14T02:37:37.225Z,73.00
2022-10-14T02:40:08.663Z,72.90
2022-10-14T02:42:35.748Z,72.90
2022-10-14T02:45:02.618Z,72.70
2022-10-14T02:47:29.492Z,72.60
2022-10-14T02:49:56.322Z,72.50
2022-10-14T02:52:23.637Z,72.40
2022-10-14T02:54:50.765Z,72.50
2022-10-14T02:57:19.060Z,72.40
2022-10-14T02:59:45.895Z,72.50
2022-10-14T03:02:12.952Z,72.40
2022-10-14T03:04:39.858Z,72.20
2022-10-14T03:07:06.722Z,72.10
2022-10-14T03:09:33.930Z,71.90
2022-10-14T03:12:00.770Z,71.90
2022-10-14T03:14:30.310Z,72.10
2022-10-14T03:16:57.380Z,72.20
2022-10-14T03:19:24.445Z,72.50
2022-10-14T03:21:51.850Z,72.90
2022-10-14T03:24:18.776Z,73.10
2022-10-14T03:26:45.708Z,73.20
2022-10-14T03:29:12.854Z,73.20
2022-10-14T03:31:39.700Z,73.30
2022-10-14T03:34:06.561Z,73.30
2022-10-14T03:36:33.430Z,73.70
2022-10-14T03:39:00.546Z,74.00
2022-10-14T03:41:27.515Z,74.30
2022-10-14T03:43:54.350Z,74.50
2022-10-14T03:46:21.372Z,74.60
2022-10-14T03:48:48.300Z,74.50
2022-10-14T03:51:15.372Z,74.40
2022-10-14T03:53:42.347Z,74.40
2022-10-14T03:56:09.295Z,74.30
2022-10-14T03:58:36.278Z,74.40
2022-10-14T04:01:03.223Z,74.40
2022-10-14T04:03:30.232Z,74.40
2022-10-14T04:05:57.077Z,74.60
2022-10-14T04:08:25.992Z,74.70
2022-10-14T04:10:54.322Z,75.00
2022-10-14T04:13:21.328Z,75.20
2022-10-14T04:15:48.419Z,75.40
2022-10-14T04:18:15.268Z,75.40
2022-10-14T04:20:42.092Z,75.50
2022-10-14T04:23:08.932Z,75.70
2022-10-14T04:25:37.541Z,76.00
2022-10-14T04:28:04.888Z,76.70
2022-10-14T04:30:32.005Z,77.00
2022-10-14T04:32:58.828Z,77.00
2022-10-14T04:35:26.694Z,76.70
2022-10-14T04:37:53.554Z,76.60
2022-10-14T04:40:23.590Z,76.90
2022-10-14T04:42:50.626Z,77.30
2022-10-14T04:45:17.739Z,77.30
2022-10-14T04:47:48.487Z,77.70
2022-10-14T04:50:15.916Z,77.80
2022-10-14T04:52:42.983Z,77.80
2022-10-14T04:55:09.882Z,77.50
2022-10-14T04:57:36.910Z,77.40
2022-10-14T05:00:04.553Z,77.30
2022-10-14T05:02:31.700Z,77.00
2022-10-14T05:04:59.770Z,77.00
2022-10-14T05:07:26.628Z,76.90
2022-10-14T05:09:56.857Z,76.70
2022-10-14T05:12:24.188Z,76.70
2022-10-14T05:14:55.839Z,76.40
2022-10-14T05:17:22.941Z,76.20
2022-10-14T05:19:49.865Z,76.10
2022-10-14T05:22:16.747Z,76.20
2022-10-14T05:24:44.050Z,76.30
2022-10-14T05:27:10.904Z,76.70
2022-10-14T05:29:38.271Z,77.10
2022-10-14T05:32:05.291Z,77.00
2022-10-14T05:34:32.213Z,77.30
2022-10-14T05:36:59.155Z,77.50
2022-10-14T05:39:26.314Z,77.50
2022-10-14T05:41:53.226Z,77.30
2022-10-14T05:44:21.117Z,77.40
2022-10-14T05:46:50.995Z,77.30
2022-10-14T05:49:17.835Z,77.40
2022-10-14T05:51:44.950Z,77.40
2022-10-14T05:54:12.616Z,77.70
2022-10-14T05:56:41.660Z,78.00
2022-10-14T05:59:12.148Z,78.00
2022-10-14T06:01:39.865Z,77.80
2022-10-14T06:04:06.792Z,78.00
2022-10-14T06:06:33.654Z,78.10
2022-10-14T06:09:00.518Z,78.20
2022-10-14T06:11:27.437Z,78.40
2022-10-14T06:13:54.499Z,78.50
2022-10-14T06:16:22.522Z,78.50
2022-10-14T06:18:54.115Z,78.50
2022-10-14T06:21:21.612Z,78.30
2022-10-14T06:23:48.570Z,78.10
2022-10-14T06:26:20.659Z,78.00
2022-10-14T06:28:47.841Z,77.90
2022-10-14T06:31:14.880Z,77.70
2022-10-14T06:33:44.016Z,77.70
2022-10-14T06:36:11.196Z,77.70
2022-10-14T06:38:38.105Z,77.70
2022-10-14T06:41:05.171Z,77.70
2022-10-14T06:43:32.129Z,78.10
2022-10-14T06:45:59.685Z,78.30
2022-10-14T06:48:26.933Z,78.70
2022-10-14T06:50:53.828Z,78.60
2022-10-14T06:53:21.570Z,78.40
2022-10-14T06:55:48.429Z,78.00
2022-10-14T06:58:15.420Z,77.60
2022-10-14T07:00:47.190Z,77.60
2022-10-14T07:03:15.222Z,77.40
2022-10-14T07:05:42.274Z,77.30
2022-10-14T07:08:11.454Z,77.10
2022-10-14T07:10:41.404Z,77.00
2022-10-14T07:13:08.951Z,76.90
2022-10-14T07:15:38.484Z,76.90
2022-10-14T07:18:06.176Z,76.90
2022-10-14T07:20:36.063Z,77.10
2022-10-14T07:23:03.021Z,77.30
2022-10-14T07:25:34.602Z,77.10
2022-10-14T07:28:04.656Z,76.70
2022-10-14T07:30:31.697Z,76.90
2022-10-14T07:33:04.998Z,77.30
2022-10-14T07:35:31.926Z,77.30
2022-10-14T07:37:59.386Z,77.00
2022-10-14T07:40:26.751Z,77.10
2022-10-14T07:42:55.122Z,77.00
2022-10-14T07:45:22.068Z,77.20
2022-10-14T07:47:51.737Z,77.80
2022-10-14T07:50:18.829Z,78.00
2022-10-14T07:52:45.797Z,77.60
2022-10-14T07:55:12.997Z,77.00
2022-10-14T07:57:40.128Z,76.40
2022-10-14T08:00:07.573Z,76.20
2022-10-14T08:02:35.147Z,76.00
2022-10-14T08:07:49.355Z,75.40
2022-10-14T08:10:16.450Z,75.10
2022-10-14T08:12:43.527Z,74.90
2022-10-14T08:15:10.821Z,74.90
2022-10-14T08:17:51.669Z,74.90
2022-10-14T08:20:18.865Z,74.50
2022-10-14T08:22:47.181Z,74.40
2022-10-14T08:25:14.252Z,74.60
2022-10-14T08:27:41.134Z,74.70
2022-10-14T08:30:11.799Z,74.50
2022-10-14T08:32:52.587Z,74.20
2022-10-14T08:35:19.522Z,74.20
2022-10-14T08:38:15.686Z,73.90
2022-10-14T08:40:58.829Z,73.70
2022-10-14T08:43:31.033Z,73.60
2022-10-14T08:45:59.090Z,73.10
2022-10-14T08:48:26.277Z,72.80
2022-10-14T08:50:57.572Z,72.50
2022-10-14T08:53:28.826Z,72.40
2022-10-14T08:55:57.334Z,71.90
2022-10-14T08:58:29.066Z,71.90
2022-10-14T09:00:56.547Z,72.00
2022-10-14T09:03:24.873Z,71.30
2022-10-14T09:05:57.556Z,70.40
2022-10-14T09:08:28.502Z,69.80
2022-10-14T09:10:55.434Z,69.50
2022-10-14T09:13:32.841Z,69.30
2022-10-14T09:16:06.851Z,68.80
2022-10-14T09:18:40.620Z,68.70
2022-10-14T09:21:34.051Z,68.10
2022-10-14T09:24:12.908Z,68.00
2022-10-14T09:26:40.839Z,67.40
2022-10-14T09:29:34.597Z,67.00
2022-10-14T09:32:02.439Z,66.70
2022-10-14T09:34:30.654Z,66.40
2022-10-14T09:36:58.782Z,66.10
2022-10-14T09:39:25.739Z,64.70
2022-10-14T09:41:52.814Z,63.50
2022-10-14T09:44:22.666Z,60.50
2022-10-14T09:46:50.657Z,58.00
2022-10-14T09:49:18.792Z,56.70
2022-10-14T09:51:48.112Z,56.20
2022-10-14T09:54:22.756Z,55.90
2022-10-14T09:56:50.203Z,56.20
2022-10-14T09:59:23.501Z,57.10
2022-10-14T10:01:51.135Z,57.90
2022-10-14T10:04:36.429Z,58.10
2022-10-14T10:07:06.054Z,58.50
2022-10-14T10:09:33.129Z,59.10
2022-10-14T10:12:00.491Z,58.70
2022-10-14T10:14:31.895Z,57.60
2022-10-14T10:17:19.765Z,53.80
2022-10-14T10:19:57.437Z,48.60
2022-10-14T10:22:27.894Z,46.70
2022-10-14T10:25:01.184Z,45.50
2022-10-14T10:27:37.530Z,43.50
2022-10-14T10:30:24.883Z,41.40
2022-10-14T10:32:55.116Z,40.20
2022-10-14T10:35:25.397Z,38.90
2022-10-14T10:38:20.747Z,37.80
2022-10-14T10:40:53.826Z,37.30
2022-10-14T10:43:39.716Z,36.40
2022-10-14T10:46:29.587Z,35.60
2022-10-14T10:49:02.232Z,35.00
2022-10-14T10:51:38.585Z,34.80
2022-10-14T10:54:05.489Z,36.00
2022-10-14T10:56:40.652Z,36.10
2022-10-14T10:59:11.907Z,35.70
2022-10-14T11:01:50.774Z,35.30
2022-10-14T11:04:26.757Z,34.90
2022-10-14T11:07:26.959Z,34.30
2022-10-14T11:10:28.667Z,33.50
2022-10-14T11:13:07.359Z,33.10
2022-10-14T11:15:42.153Z,32.50
2022-10-14T11:18:10.500Z,32.10
2022-10-14T11:20:55.778Z,32.50
2022-10-14T11:23:41.447Z,32.50
2022-10-14T11:26:08.677Z,31.70
2022-10-14T11:28:43.116Z,31.50
2022-10-14T11:31:51.329Z,31.50
2022-10-14T11:34:36.548Z,31.60
2022-10-14T11:37:05.809Z,31.30
2022-10-14T11:39:41.762Z,30.80
2022-10-14T11:42:15.782Z,30.10
2022-10-14T11:44:44.147Z,29.80
2022-10-14T11:47:27.065Z,29.70
2022-10-14T11:50:00.132Z,29.50
2022-10-14T11:52:30.538Z,29.10
2022-10-14T11:55:12.285Z,29.40
2022-10-14T11:57:56.057Z,29.30
2022-10-14T12:00:23.011Z,29.00
2022-10-14T12:03:06.718Z,28.90
2022-10-14T12:05:46.580Z,28.80
2022-10-14T12:08:21.279Z,28.60
2022-10-14T12:11:10.926Z,28.40
2022-10-14T12:14:00.426Z,28.00
2022-10-14T12:16:29.943Z,27.80
2022-10-14T12:19:00.032Z,27.30
2022-10-14T12:21:48.208Z,27.30
2022-10-14T12:24:20.584Z,28.00
2022-10-14T12:26:50.263Z,28.30
2022-10-14T12:29:27.849Z,28.30
2022-10-14T12:32:15.698Z,28.00
2022-10-14T12:34:48.115Z,28.10
2022-10-14T12:37:32.583Z,28.10
2022-10-14T12:40:02.671Z,27.90
2022-10-14T12:42:32.020Z,27.80
2022-10-14T12:45:14.867Z,27.30
2022-10-14T12:47:57.228Z,27.40
2022-10-14T12:50:37.472Z,28.40
2022-10-14T12:53:30.888Z,28.90
2022-10-14T12:55:58.793Z,29.30
2022-10-14T12:58:32.846Z,29.10
2022-10-14T13:01:03.743Z,28.90
2022-10-14T13:03:32.280Z,28.70
2022-10-14T13:06:20.571Z,29.60
2022-10-14T13:09:07.730Z,30.50
2022-10-14T13:11:34.974Z,32.10
2022-10-14T13:14:04.513Z,34.00
2022-10-14T13:16:33.144Z,35.30
2022-10-14T13:19:00.472Z,36.00
2022-10-14T13:21:27.433Z,36.40
2022-10-14T13:23:55.441Z,37.10
2022-10-14T13:26:23.472Z,38.10
2022-10-14T13:29:02.367Z,39.30
2022-10-14T13:31:35.672Z,39.90
2022-10-14T13:34:13.311Z,40.80
2022-10-14T13:36:46.423Z,41.50
2022-10-14T13:39:13.377Z,41.90
2022-10-14T13:41:41.206Z,42.30
2022-10-14T13:44:10.189Z,42.50
2022-10-14T13:46:44.282Z,43.20
2022-10-14T13:49:17.267Z,43.30
2022-10-14T13:51:54.519Z,43.70
2022-10-14T13:54:23.106Z,44.50
2022-10-14T14:00:22.612Z,45.20
2022-10-14T14:02:36.983Z,45.80
2022-10-14T14:05:27.890Z,46.20
2022-10-14T14:11:15.675Z,46.70
2022-10-14T14:13:32.480Z,46.80
2022-10-14T14:16:04.350Z,45.50
2022-10-14T14:18:56.086Z,43.60
2022-10-14T14:21:36.217Z,43.00
2022-10-14T14:26:55.448Z,43.70
2022-10-14T14:29:29.190Z,44.60
2022-10-14T14:32:11.792Z,45.00
2022-10-14T14:34:39.005Z,45.50
2022-10-14T14:37:33.905Z,44.60
2022-10-14T14:39:58.692Z,44.30
2022-10-14T14:42:39.520Z,43.30
2022-10-14T14:45:28.367Z,42.80
2022-10-14T14:47:56.139Z,42.60
2022-10-14T14:50:31.454Z,43.50
2022-10-14T14:53:01.002Z,43.20
2022-10-14T14:55:34.063Z,43.70
2022-10-14T14:58:01.245Z,44.20
2022-10-14T15:00:28.649Z,45.20
2022-10-14T15:02:58.786Z,45.50
2022-10-14T15:05:25.671Z,46.30
2022-10-14T15:07:52.733Z,46.80
2022-10-14T15:10:21.010Z,47.50
2022-10-14T15:12:51.630Z,48.20
2022-10-14T15:15:30.521Z,48.60
2022-10-14T15:18:16.665Z,48.60
2022-10-14T15:20:43.696Z,49.00
2022-10-14T15:23:29.360Z,49.70
2022-10-14T15:25:59.222Z,50.10
2022-10-14T15:28:30.814Z,50.30
2022-10-14T15:31:02.999Z,50.40
2022-10-14T15:33:32.767Z,50.40
2022-10-14T15:36:02.829Z,50.50
2022-10-14T15:41:04.128Z,51.70
2022-10-14T15:43:32.422Z,52.00
2022-10-14T15:46:18.408Z,52.60
2022-10-14T15:49:02.078Z,53.20
2022-10-14T15:51:30.775Z,53.60
2022-10-14T15:53:58.253Z,53.90
2022-10-14T15:56:27.397Z,54.00
2022-10-14T15:58:54.539Z,54.10
2022-10-14T16:01:22.295Z,54.00
2022-10-14T16:03:52.573Z,54.00
2022-10-14T16:06:22.936Z,54.10
2022-10-14T16:08:50.147Z,54.10
2022-10-14T16:11:22.945Z,54.50
2022-10-14T16:13:49.963Z,54.60
2022-10-14T16:16:19.289Z,54.70
2022-10-14T16:18:46.282Z,54.80
2022-10-14T16:21:14.238Z,54.70
2022-10-14T16:23:41.139Z,54.90
2022-10-14T16:26:07.999Z,54.70
2022-10-14T16:28:35.083Z,55.00
2022-10-14T16:31:04.864Z,55.40
2022-10-14T16:33:32.959Z,55.20
2022-10-14T16:36:02.290Z,55.40
2022-10-14T16:38:29.507Z,55.60
2022-10-14T16:40:57.516Z,55.70
2022-10-14T16:43:24.649Z,56.10
2022-10-14T16:45:51.760Z,56.00
2022-10-14T16:48:19.617Z,56.00
2022-10-14T16:50:53.157Z,56.30
2022-10-14T16:53:38.444Z,56.70
2022-10-14T16:56:25.577Z,57.00
2022-10-14T16:58:52.523Z,57.30
2022-10-14T17:01:19.409Z,57.70
2022-10-14T17:03:47.764Z,58.00
2022-10-14T17:06:14.681Z,58.30
2022-10-14T17:08:41.900Z,58.60
2022-10-14T17:11:09.451Z,58.70
2022-10-14T17:13:36.757Z,58.90
2022-10-14T17:16:04.007Z,59.20
2022-10-14T17:18:35.064Z,59.30
2022-10-14T17:21:09.172Z,59.60
2022-10-14T17:23:36.264Z,59.70
2022-10-14T17:26:04.516Z,59.90
2022-10-14T17:28:32.206Z,60.20
2022-10-14T17:31:01.683Z,60.30
2022-10-14T17:33:32.126Z,60.70
2022-10-14T17:36:01.443Z,61.00
2022-10-14T17:38:28.925Z,61.50
2022-10-14T17:41:05.778Z,60.60
2022-10-14T17:43:33.087Z,60.70
2022-10-14T17:46:11.734Z,60.20
2022-10-14T17:48:42.489Z,59.90
2022-10-14T17:51:12.693Z,60.00
2022-10-14T17:53:39.732Z,60.10
2022-10-14T17:56:07.096Z,60.30
2022-10-14T17:58:34.014Z,60.50
2022-10-14T18:01:07.641Z,60.80
2022-10-14T18:03:34.962Z,61.10
2022-10-14T18:06:11.044Z,61.10
2022-10-14T18:08:38.784Z,61.30
2022-10-14T18:11:10.856Z,61.60
2022-10-14T18:16:12.238Z,62.50
2022-10-14T18:18:39.674Z,62.40
2022-10-14T18:21:06.838Z,62.70
2022-10-14T18:23:34.253Z,62.90
2022-10-14T18:26:08.203Z,62.80
2022-10-14T18:28:39.007Z,62.90
2022-10-14T18:31:18.840Z,62.80
2022-10-14T18:33:45.859Z,62.70
2022-10-14T18:36:16.092Z,62.70
2022-10-14T18:38:43.093Z,62.60
2022-10-14T18:41:13.981Z,62.80
2022-10-14T18:43:44.802Z,62.90
2022-10-14T18:46:15.408Z,63.10
2022-10-14T18:48:42.669Z,62.90
2022-10-14T18:51:09.753Z,62.90
2022-10-14T18:53:37.180Z,62.80
2022-10-14T18:56:12.979Z,63.00
2022-10-14T18:58:39.968Z,63.20
2022-10-14T19:01:07.083Z,63.30
2022-10-14T19:03:40.603Z,63.40
2022-10-14T19:06:08.116Z,63.70
2022-10-14T19:08:37.082Z,63.90
2022-10-14T19:11:04.407Z,64.10
2022-10-14T19:13:31.616Z,64.10
2022-10-14T19:16:08.431Z,64.10
2022-10-14T19:18:37.274Z,64.30
2022-10-14T19:21:09.544Z,64.50
2022-10-14T19:23:36.905Z,64.40
2022-10-14T19:26:04.791Z,64.50
2022-10-14T19:28:31.973Z,64.60
2022-10-14T19:30:58.968Z,64.60
2022-10-14T19:33:25.990Z,64.50
2022-10-14T19:35:57.072Z,64.50
2022-10-14T19:38:27.026Z,64.30
2022-10-14T19:40:53.967Z,64.60
2022-10-14T19:43:21.094Z,64.20
2022-10-14T19:45:50.250Z,64.30
2022-10-14T19:48:17.405Z,64.40
2022-10-14T19:50:44.386Z,64.30
2022-10-14T19:53:11.878Z,64.10
2022-10-14T19:55:39.162Z,64.00
2022-10-14T19:58:06.692Z,63.90
2022-10-14T20:00:34.121Z,64.10
2022-10-14T20:03:01.038Z,64.20
2022-10-14T20:05:29.334Z,64.20
2022-10-14T20:07:57.426Z,64.30
2022-10-14T20:10:24.525Z,64.20
2022-10-14T20:12:53.510Z,64.20
2022-10-14T20:15:20.513Z,64.10
2022-10-14T20:17:47.491Z,64.20
2022-10-14T20:20:14.488Z,64.20
2022-10-14T20:22:41.649Z,64.20
2022-10-14T20:25:08.779Z,63.90
2022-10-14T20:27:35.936Z,64.00
2022-10-14T20:30:03.678Z,64.00
2022-10-14T20:32:30.750Z,64.00
2022-10-14T20:34:57.950Z,64.10
2022-10-14T20:37:28.033Z,64.30
2022-10-14T20:39:57.967Z,64.60
2022-10-14T20:42:24.914Z,64.60
2022-10-14T20:44:51.866Z,64.50
2022-10-14T20:47:19.070Z,64.40
2022-10-14T20:49:46.225Z,64.40
2022-10-14T20:52:13.442Z,64.40
2022-10-14T20:54:40.756Z,64.30
2022-10-14T20:57:07.641Z,64.50
2022-10-14T20:59:34.581Z,64.90
2022-10-14T21:02:01.833Z,64.60
2022-10-14T21:04:28.750Z,64.40
2022-10-14T21:06:55.673Z,64.20
2022-10-14T21:09:22.573Z,64.20
2022-10-14T21:11:49.612Z,63.90
2022-10-14T21:14:17.954Z,64.20
2022-10-14T21:16:45.014Z,64.60
2022-10-14T21:19:12.706Z,64.70
2022-10-14T21:21:42.003Z,64.90
2022-10-14T21:24:09.325Z,64.90
2022-10-14T21:26:36.299Z,64.70
2022-10-14T21:29:03.310Z,64.80
2022-10-14T21:31:30.322Z,65.00
2022-10-14T21:34:02.523Z,65.00
2022-10-14T21:36:33.311Z,65.00
2022-10-14T21:39:04.070Z,64.90
2022-10-14T21:41:31.115Z,65.00
2022-10-14T21:43:59.365Z,65.00
2022-10-14T21:46:26.741Z,65.10
2022-10-14T21:48:54.574Z,65.10
2022-10-14T21:51:25.081Z,65.10
2022-10-14T21:53:52.147Z,65.20
2022-10-14T21:56:21.401Z,65.20
2022-10-14T21:58:48.587Z,65.30
2022-10-14T22:01:16.645Z,65.20
2022-10-14T22:03:43.998Z,65.00
2022-10-14T22:06:14.889Z,65.00
2022-10-14T22:08:42.832Z,65.30
2022-10-14T22:11:17.047Z,65.70
2022-10-14T22:13:45.069Z,65.70
2022-10-14T22:16:13.680Z,66.10
2022-10-14T22:18:45.047Z,65.80
2022-10-14T22:21:13.095Z,65.80
2022-10-14T22:23:40.729Z,65.70
2022-10-14T22:26:08.340Z,65.70
2022-10-14T22:28:35.342Z,66.00
2022-10-14T22:31:05.359Z,66.10
2022-10-14T22:33:33.603Z,66.00
2022-10-14T22:36:07.608Z,66.20
2022-10-14T22:38:34.623Z,66.10
2022-10-14T22:41:05.092Z,65.90
2022-10-14T22:43:32.288Z,65.90
2022-10-14T22:46:00.088Z,65.80
2022-10-14T22:48:27.004Z,65.90
2022-10-14T22:50:53.976Z,65.90
2022-10-14T22:53:21.005Z,65.80
2022-10-14T22:55:51.804Z,66.00
2022-10-14T22:58:18.716Z,65.90
2022-10-14T23:00:45.690Z,65.70
2022-10-14T23:03:12.670Z,65.60
2022-10-14T23:05:39.519Z,65.70
2022-10-14T23:08:15.195Z,65.60
2022-10-14T23:10:42.511Z,65.80
2022-10-14T23:13:09.571Z,65.70
2022-10-14T23:15:36.693Z,65.80
2022-10-14T23:18:03.727Z,65.60
2022-10-14T23:20:32.737Z,65.50
2022-10-14T23:22:59.687Z,65.40
2022-10-14T23:25:26.668Z,65.30
2022-10-14T23:27:53.533Z,65.30
2022-10-14T23:30:20.374Z,65.40
2022-10-14T23:32:47.370Z,65.70
2022-10-14T23:35:14.202Z,65.70
2022-10-14T23:37:41.250Z,65.70
2022-10-14T23:40:09.012Z,65.60
2022-10-14T23:42:36.294Z,66.00
2022-10-14T23:45:03.355Z,66.10
2022-10-14T23:47:31.671Z,66.30
2022-10-14T23:49:58.799Z,66.20
2022-10-14T23:52:25.757Z,66.10
2022-10-14T23:54:52.747Z,66.20
2022-10-14T23:57:20.229Z,66.00
2022-10-14T23:59:47.448Z,66.10
